Time;durP1;ratioP1;P1;durP2;ratioP2;P2;SDS_P1;SDS_P2;PMS_P1;PMS_P2;Temp;Humidity;BMP_temperature;BMP_pressure;BME280_temperature;BME280_humidity;BME280_pressure;Samples;Min_cycle;Max_cycle;Signal;HPM_P1;HPM_P2
2023/09/29 00:01:44;;;;;;;0.50;0.50;;;;;;;12.51;82.69;100052.44;6154933;23;20021;-83
2023/09/29 00:04:12;;;;;;;0.50;0.50;;;;;;;12.49;83.11;100059.97;6154641;23;20420;-82
2023/09/29 00:06:39;;;;;;;0.50;0.50;;;;;;;12.46;83.21;100055.03;6154719;23;20412;-83
2023/09/29 00:09:06;;;;;;;0.57;0.57;;;;;;;12.37;83.46;100048.28;6155443;23;20029;-84
2023/09/29 00:11:34;;;;;;;0.60;0.60;;;;;;;12.35;83.80;100061.22;6154768;23;20021;-82
2023/09/29 00:14:02;;;;;;;0.50;0.50;;;;;;;12.21;84.27;100057.06;6155129;23;20025;-84
2023/09/29 00:16:29;;;;;;;0.50;0.50;;;;;;;12.09;84.66;100060.53;6104940;23;20404;-84
2023/09/29 00:18:56;;;;;;;0.50;0.50;;;;;;;12.04;85.01;100060.38;6154903;23;20036;-83
2023/09/29 00:21:24;;;;;;;0.50;0.50;;;;;;;11.95;85.49;100061.78;6129482;23;20109;-81
2023/09/29 00:23:51;;;;;;;0.60;0.60;;;;;;;11.91;86.18;100064.09;6155791;23;20025;-83
2023/09/29 00:26:20;;;;;;;0.50;0.50;;;;;;;11.87;86.19;100064.75;6164116;23;20025;-81
2023/09/29 00:28:49;;;;;;;0.60;0.60;;;;;;;11.84;86.45;100063.31;6170799;23;20048;-83
2023/09/29 00:31:16;;;;;;;0.40;0.40;;;;;;;11.79;86.69;100071.28;6129566;23;20116;-83
2023/09/29 00:33:44;;;;;;;0.50;0.50;;;;;;;11.83;87.03;100064.38;6128540;23;20021;-84
2023/09/29 00:36:14;;;;;;;0.47;0.47;;;;;;;11.82;86.97;100068.13;6154587;23;20405;-82
2023/09/29 00:38:41;;;;;;;0.50;0.50;;;;;;;11.80;86.86;100061.28;6129459;23;20026;-85
2023/09/29 00:41:08;;;;;;;0.50;0.50;;;;;;;11.67;87.22;100060.41;6155230;23;20022;-85
2023/09/29 00:43:35;;;;;;;0.50;0.50;;;;;;;11.64;87.68;100068.13;6161536;23;20025;-84
2023/09/29 00:46:04;;;;;;;0.50;0.50;;;;;;;11.64;88.01;100068.13;6143317;23;20022;-84
2023/09/29 00:48:33;;;;;;;0.50;0.50;;;;;;;11.64;87.99;100063.53;6173696;23;20022;-83
2023/09/29 00:51:00;;;;;;;0.50;0.50;;;;;;;11.61;88.18;100066.72;6162598;23;20021;-85
2023/09/29 00:53:28;;;;;;;0.50;0.50;;;;;;;11.62;88.18;100068.38;6159052;23;20389;-83
2023/09/29 00:55:56;;;;;;;0.50;0.50;;;;;;;11.57;88.25;100061.97;6155208;23;20088;-84
2023/09/29 00:58:23;;;;;;;0.50;0.50;;;;;;;11.53;88.45;100063.50;6154882;23;20365;-83
2023/09/29 01:00:52;;;;;;;0.50;0.50;;;;;;;11.48;88.52;100064.97;6128994;23;20026;-82
2023/09/29 01:03:19;;;;;;;0.50;0.50;;;;;;;11.41;88.73;100049.88;6154912;23;20278;-84
2023/09/29 01:05:49;;;;;;;0.40;0.40;;;;;;;11.40;89.19;100059.88;6128688;23;20515;-83
2023/09/29 01:08:22;;;;;;;0.50;0.50;;;;;;;11.43;89.12;100064.00;6154465;23;20334;-84
2023/09/29 01:10:50;;;;;;;0.50;0.50;;;;;;;11.39;89.47;100055.50;6154643;23;20540;-83
2023/09/29 01:13:17;;;;;;;0.50;0.50;;;;;;;11.38;89.46;100063.84;6103932;23;20025;-84
2023/09/29 01:15:46;;;;;;;0.50;0.50;;;;;;;11.37;89.76;100067.59;6154773;23;20029;-83
2023/09/29 01:18:16;;;;;;;0.50;0.50;;;;;;;11.36;89.80;100074.06;6154282;23;20029;-82
2023/09/29 01:20:44;;;;;;;0.50;0.50;;;;;;;11.36;89.86;100069.47;6154813;23;20088;-84
2023/09/29 01:23:11;;;;;;;0.50;0.50;;;;;;;11.31;89.99;100065.78;6128626;23;20025;-84
2023/09/29 01:25:39;;;;;;;0.50;0.50;;;;;;;11.24;90.19;100066.69;6128781;23;20461;-83
2023/09/29 01:28:08;;;;;;;0.50;0.50;;;;;;;11.21;90.70;100069.81;6128833;23;20088;-83
2023/09/29 01:30:36;;;;;;;0.50;0.50;;;;;;;11.19;90.81;100068.38;6154872;23;20025;-83
2023/09/29 01:33:04;;;;;;;0.50;0.50;;;;;;;11.13;90.98;100067.41;6154495;23;20080;-83
2023/09/29 01:35:31;;;;;;;0.50;0.50;;;;;;;11.11;91.78;100066.78;6154771;23;20054;-82
2023/09/29 01:38:01;;;;;;;0.50;0.50;;;;;;;11.10;91.68;100064.34;6154212;23;20353;-83
2023/09/29 01:40:29;;;;;;;0.50;0.50;;;;;;;11.06;92.03;100064.78;6128399;23;20489;-84
2023/09/29 01:42:56;;;;;;;0.60;0.60;;;;;;;10.99;92.01;100055.91;6154043;23;20089;-84
2023/09/29 01:45:25;;;;;;;0.50;0.50;;;;;;;10.99;92.36;100063.19;6128146;23;20029;-83
2023/09/29 01:47:53;;;;;;;0.60;0.60;;;;;;;10.93;92.85;100064.06;6128295;23;20022;-84
2023/09/29 01:50:21;;;;;;;0.60;0.60;;;;;;;10.89;92.83;100060.13;6154548;23;20357;-82
2023/09/29 01:52:50;;;;;;;0.50;0.50;;;;;;;10.92;93.12;100067.81;6154313;23;20021;-82
2023/09/29 01:55:24;;;;;;;0.60;0.60;;;;;;;10.90;93.34;100061.81;6127876;23;20036;-83
2023/09/29 01:57:56;;;;;;;0.60;0.60;;;;;;;10.83;93.53;100065.38;6154046;23;20028;-84
2023/09/29 02:00:24;;;;;;;0.52;0.52;;;;;;;10.80;94.01;100063.13;6128213;23;20361;-83
2023/09/29 02:02:54;;;;;;;0.50;0.50;;;;;;;10.77;94.40;100058.16;6154544;23;20076;-83
2023/09/29 02:05:23;;;;;;;0.60;0.60;;;;;;;10.84;94.46;100061.63;6155065;23;20461;-83
2023/09/29 02:07:52;;;;;;;0.60;0.60;;;;;;;10.80;94.63;100056.91;6154736;23;20021;-82
2023/09/29 02:10:22;;;;;;;0.60;0.60;;;;;;;10.82;94.87;100071.84;6153974;23;20045;-83
2023/09/29 02:12:55;;;;;;;0.60;0.60;;;;;;;10.78;95.18;100059.81;6128864;23;20080;-83
2023/09/29 02:15:28;;;;;;;0.50;0.50;;;;;;;10.77;95.44;100060.03;6104810;23;20022;-84
2023/09/29 02:17:58;;;;;;;0.50;0.50;;;;;;;10.78;95.63;100067.09;6127652;23;20449;-83
2023/09/29 02:20:29;;;;;;;0.60;0.60;;;;;;;10.76;95.60;100070.03;6128110;23;20025;-82
2023/09/29 02:22:58;;;;;;;0.50;0.50;;;;;;;10.70;95.92;100060.09;6153656;23;20073;-83
2023/09/29 02:25:26;;;;;;;0.52;0.52;;;;;;;10.71;96.15;100063.59;6128081;23;20021;-83
2023/09/29 02:27:54;;;;;;;0.60;0.60;;;;;;;10.70;96.15;100067.38;6127856;23;20523;-84
2023/09/29 02:30:22;;;;;;;0.60;0.60;;;;;;;10.64;96.59;100066.38;6154406;23;20046;-83
2023/09/29 02:32:52;;;;;;;0.50;0.50;;;;;;;10.66;96.76;100066.13;6078695;23;20021;-82
2023/09/29 02:35:20;;;;;;;0.50;0.50;;;;;;;10.68;96.86;100066.75;6127454;23;20037;-85
2023/09/29 02:37:48;;;;;;;0.60;0.60;;;;;;;10.65;97.16;100068.00;6153682;23;20033;-83
2023/09/29 02:40:15;;;;;;;0.60;0.60;;;;;;;10.68;97.28;100072.97;6153504;23;20022;-83
2023/09/29 02:42:44;;;;;;;0.50;0.50;;;;;;;10.70;97.38;100070.88;6153930;23;20025;-83
2023/09/29 02:45:13;;;;;;;0.52;0.52;;;;;;;10.69;97.27;100069.25;6127819;23;20402;-82
2023/09/29 02:47:41;;;;;;;0.60;0.60;;;;;;;10.67;97.23;100075.91;6153785;23;20032;-83
2023/09/29 02:50:10;;;;;;;0.50;0.50;;;;;;;10.64;97.31;100071.78;6102696;23;20025;-83
2023/09/29 02:52:39;;;;;;;0.50;0.50;;;;;;;10.63;97.31;100072.81;6079199;23;20053;-83
2023/09/29 02:55:12;;;;;;;0.57;0.57;;;;;;;10.60;97.20;100075.94;6153862;23;20096;-83
2023/09/29 02:57:41;;;;;;;0.60;0.60;;;;;;;10.56;97.42;100075.56;6152762;23;20365;-82
2023/09/29 03:00:18;;;;;;;0.50;0.50;;;;;;;10.52;97.70;100074.34;6127164;23;20032;-83
2023/09/29 03:02:45;;;;;;;0.50;0.50;;;;;;;10.51;97.84;100077.28;6153515;23;20405;-83
2023/09/29 03:05:14;;;;;;;0.50;0.50;;;;;;;10.50;97.83;100076.41;6153420;23;20026;-83
2023/09/29 03:07:42;;;;;;;0.60;0.60;;;;;;;10.49;97.98;100074.78;6153750;23;20441;-83
2023/09/29 03:10:13;;;;;;;0.50;0.50;;;;;;;10.49;98.14;100073.97;6153580;23;20026;-82
2023/09/29 03:12:40;;;;;;;0.50;0.50;;;;;;;10.46;98.38;100077.06;6153822;23;20461;-84
2023/09/29 03:15:09;;;;;;;0.60;0.60;;;;;;;10.45;98.32;100070.84;6153433;23;20048;-83
2023/09/29 03:17:36;;;;;;;0.60;0.60;;;;;;;10.41;98.50;100070.47;6127401;23;20021;-84
2023/09/29 03:20:10;;;;;;;0.50;0.50;;;;;;;10.37;98.72;100071.94;6126712;23;20025;-84
2023/09/29 03:22:39;;;;;;;;;;;;;;;10.38;98.80;100072.75;6129735;23;20106;-83
2023/09/29 03:25:07;;;;;;;0.50;0.50;;;;;;;10.34;98.98;100061.59;6127807;23;19960;-83
2023/09/29 03:27:34;;;;;;;0.60;0.60;;;;;;;10.43;98.46;100059.44;6153441;23;20025;-83
2023/09/29 03:30:04;;;;;;;0.60;0.60;;;;;;;10.43;98.25;100064.84;6127452;23;20032;-83
2023/09/29 03:32:32;;;;;;;0.55;0.55;;;;;;;10.36;98.38;100043.31;6153533;23;20021;-83
2023/09/29 03:35:04;;;;;;;0.60;0.60;;;;;;;10.46;98.69;100050.94;6152940;23;20088;-84
2023/09/29 03:37:38;;;;;;;0.60;0.60;;;;;;;10.59;98.51;100064.31;6153493;23;20073;-83
2023/09/29 03:40:09;;;;;;;0.60;0.60;;;;;;;10.54;98.31;100053.34;6153226;23;20398;-83
2023/09/29 03:42:37;;;;;;;0.60;0.60;;;;;;;10.53;98.11;100064.34;6153550;23;20026;-83
2023/09/29 03:45:05;;;;;;;0.60;0.60;;;;;;;10.50;98.26;100057.53;6153145;23;20096;-85
2023/09/29 03:47:34;;;;;;;0.60;0.60;;;;;;;10.57;98.21;100066.41;6153473;23;20021;-84
2023/09/29 03:50:10;;;;;;;0.60;0.60;;;;;;;10.50;98.18;100062.94;6151787;23;20056;-84
2023/09/29 03:52:39;;;;;;;0.60;0.60;;;;;;;10.56;98.10;100072.03;6153624;23;20052;-82
2023/09/29 03:55:06;;;;;;;0.50;0.50;;;;;;;10.45;98.22;100045.75;6153119;23;20089;-84
2023/09/29 03:57:34;;;;;;;0.50;0.50;;;;;;;10.58;98.29;100061.84;6153230;23;20026;-83
2023/09/29 04:00:02;;;;;;;0.60;0.60;;;;;;;10.51;98.11;100055.69;6153165;23;20053;-84
2023/09/29 04:02:42;;;;;;;0.60;0.60;;;;;;;10.58;98.25;100067.22;6153706;23;20409;-83
2023/09/29 04:05:10;;;;;;;0.50;0.50;;;;;;;10.48;97.92;100040.75;6153059;23;20028;-83
2023/09/29 04:07:39;;;;;;;0.60;0.60;;;;;;;10.62;97.89;100058.47;6128241;23;20044;-83
2023/09/29 04:10:08;;;;;;;0.60;0.60;;;;;;;10.68;98.00;100055.94;6155698;23;20445;-84
2023/09/29 04:12:37;;;;;;;0.60;0.60;;;;;;;10.74;97.82;100049.69;6155271;23;20026;-83
2023/09/29 04:15:05;;;;;;;0.50;0.50;;;;;;;10.74;97.44;100047.81;6156341;23;20032;-84
2023/09/29 04:17:34;;;;;;;0.50;0.50;;;;;;;10.81;97.17;100051.28;6168714;23;20064;-83
2023/09/29 04:20:05;;;;;;;0.60;0.60;;;;;;;10.82;96.91;100052.94;6092626;23;20048;-84
2023/09/29 04:22:33;;;;;;;0.60;0.60;;;;;;;10.81;96.48;100051.28;6069313;23;20086;-84
2023/09/29 04:25:03;;;;;;;0.57;0.57;;;;;;;10.88;96.50;100053.91;6139038;23;20077;-83
2023/09/29 04:27:31;;;;;;;0.60;0.60;;;;;;;10.91;96.21;100044.53;6127025;23;20065;-83
2023/09/29 04:29:58;;;;;;;0.55;0.55;;;;;;;11.01;96.01;100051.13;6126655;23;20030;-84
2023/09/29 04:32:26;;;;;;;0.57;0.57;;;;;;;11.07;95.53;100044.81;6127354;23;20080;-84
2023/09/29 04:34:53;;;;;;;0.52;0.52;;;;;;;11.06;95.04;100045.03;6130007;23;20028;-84
2023/09/29 04:37:25;;;;;;;0.60;0.60;;;;;;;11.13;95.03;100053.91;6139932;23;20029;-83
2023/09/29 04:39:52;;;;;;;0.55;0.55;;;;;;;11.17;94.75;100057.00;6143472;23;20295;-84
2023/09/29 04:42:19;;;;;;;0.60;0.60;;;;;;;11.22;94.77;100059.84;6126261;23;20044;-83
2023/09/29 04:44:46;;;;;;;0.52;0.52;;;;;;;11.30;94.63;100056.03;6127114;23;20029;-85
2023/09/29 04:47:13;;;;;;;0.60;0.60;;;;;;;11.37;94.29;100048.66;6077528;23;20081;-85
2023/09/29 04:49:42;;;;;;;0.60;0.60;;;;;;;11.42;94.06;100046.13;6127638;23;20018;-85
2023/09/29 04:52:10;;;;;;;0.60;0.60;;;;;;;11.46;93.77;100047.31;6126374;23;20022;-82
2023/09/29 04:54:37;;;;;;;0.60;0.60;;;;;;;11.57;93.62;100049.31;6125651;23;20025;-83
2023/09/29 04:57:04;;;;;;;0.50;0.50;;;;;;;11.67;93.10;100055.00;6099939;23;20414;-83
2023/09/29 04:59:31;;;;;;;0.60;0.60;;;;;;;11.78;92.82;100049.88;6099964;23;20081;-83
2023/09/29 05:01:58;;;;;;;0.50;0.50;;;;;;;11.81;92.35;100044.03;6100111;23;20064;-84
2023/09/29 05:04:25;;;;;;;0.55;0.55;;;;;;;11.90;92.06;100048.94;6100503;23;20030;-84
2023/09/29 05:06:52;;;;;;;0.50;0.50;;;;;;;11.92;91.53;100045.97;6125944;23;20058;-83
2023/09/29 05:09:21;;;;;;;0.50;0.50;;;;;;;12.00;91.09;100053.81;6124584;23;20497;-84
2023/09/29 05:11:48;;;;;;;0.57;0.57;;;;;;;11.98;90.67;100045.09;6124961;23;20493;-85
2023/09/29 05:14:15;;;;;;;0.50;0.50;;;;;;;12.09;90.49;100046.19;6101075;23;20119;-84
2023/09/29 05:16:43;;;;;;;0.60;0.60;;;;;;;12.17;90.15;100053.97;6101499;23;20025;-85
2023/09/29 05:19:10;;;;;;;0.52;0.52;;;;;;;12.27;89.64;100046.13;6141885;23;20030;-84
2023/09/29 05:21:37;;;;;;;0.60;0.60;;;;;;;12.34;89.43;100037.91;6154795;23;20084;-84
2023/09/29 05:24:05;;;;;;;0.60;0.60;;;;;;;12.51;88.93;100044.31;6128715;23;20458;-84
2023/09/29 05:26:32;;;;;;;0.60;0.60;;;;;;;12.64;88.18;100047.88;6128266;23;20033;-84
2023/09/29 05:29:00;;;;;;;0.55;0.55;;;;;;;12.71;87.50;100044.00;6150345;23;20026;-84
2023/09/29 05:31:27;;;;;;;0.55;0.55;;;;;;;12.85;86.23;100044.59;6154126;23;20021;-82
2023/09/29 05:33:55;;;;;;;0.50;0.50;;;;;;;12.97;85.57;100050.03;6154756;23;20041;-83
2023/09/29 05:36:22;;;;;;;0.60;0.60;;;;;;;13.06;85.04;100054.03;6128639;23;20419;-84
2023/09/29 05:38:50;;;;;;;0.50;0.50;;;;;;;13.17;84.40;100049.69;6154816;23;20048;-82
2023/09/29 05:41:17;;;;;;;0.60;0.60;;;;;;;13.25;84.09;100052.03;6129771;23;20028;-83
2023/09/29 05:43:44;;;;;;;0.60;0.60;;;;;;;13.35;83.24;100055.03;6154875;23;20028;-83
2023/09/29 05:46:12;;;;;;;0.60;0.60;;;;;;;13.38;83.18;100046.41;6154673;23;20026;-84
2023/09/29 05:48:39;;;;;;;0.50;0.50;;;;;;;13.44;82.92;100037.34;6154453;23;20076;-83
2023/09/29 05:51:06;;;;;;;0.60;0.60;;;;;;;13.55;82.49;100051.94;6153804;23;20026;-83
2023/09/29 05:53:33;;;;;;;0.50;0.50;;;;;;;13.67;82.42;100041.03;6153819;23;20025;-83
2023/09/29 05:56:06;;;;;;;0.60;0.60;;;;;;;13.75;82.12;100048.81;6153687;23;20104;-81
2023/09/29 05:58:33;;;;;;;0.52;0.52;;;;;;;13.85;82.02;100042.78;6154051;23;20041;-83
2023/09/29 06:01:11;;;;;;;0.60;0.60;;;;;;;13.95;81.89;100045.69;6151766;23;20104;-83
2023/09/29 06:03:40;;;;;;;0.50;0.50;;;;;;;14.04;81.76;100041.53;6153395;23;20409;-82
2023/09/29 06:06:11;;;;;;;0.50;0.50;;;;;;;14.18;80.51;100047.50;6127442;23;20076;-82
2023/09/29 06:08:39;;;;;;;0.40;0.40;;;;;;;14.22;80.46;100040.50;6127006;23;20049;-83
2023/09/29 06:11:09;;;;;;;0.50;0.50;;;;;;;14.34;79.39;100042.34;6152766;23;20360;-82
2023/09/29 06:13:37;;;;;;;0.50;0.50;;;;;;;14.44;78.56;100037.91;6126395;23;20025;-83
2023/09/29 06:16:06;;;;;;;0.60;0.60;;;;;;;14.62;78.10;100047.75;6152670;23;20026;-83
2023/09/29 06:18:33;;;;;;;0.50;0.50;;;;;;;14.70;77.37;100039.19;6152644;23;20030;-83
2023/09/29 06:21:00;;;;;;;0.60;0.60;;;;;;;14.72;76.98;100041.69;6126590;23;20025;-84
2023/09/29 06:23:27;;;;;;;0.50;0.50;;;;;;;14.76;76.82;100033.84;6152737;23;20100;-83
2023/09/29 06:26:01;;;;;;;0.50;0.50;;;;;;;14.86;76.49;100050.31;6152766;23;20032;-83
2023/09/29 06:28:28;;;;;;;0.47;0.47;;;;;;;14.86;76.24;100048.44;6152747;23;20364;-83
2023/09/29 06:30:56;;;;;;;0.40;0.40;;;;;;;14.93;76.15;100051.78;6151743;23;20458;-82
2023/09/29 06:33:26;;;;;;;0.50;0.50;;;;;;;14.97;76.08;100048.59;6152198;23;20025;-82
2023/09/29 06:35:53;;;;;;;0.55;0.55;;;;;;;15.05;75.71;100046.28;6152736;23;20025;-81
2023/09/29 06:38:20;;;;;;;0.50;0.50;;;;;;;15.16;75.16;100041.81;6152719;23;20100;-82
2023/09/29 06:40:47;;;;;;;0.50;0.50;;;;;;;15.27;74.91;100040.91;6152081;23;20025;-83
2023/09/29 06:43:17;;;;;;;0.50;0.50;;;;;;;15.36;74.47;100047.53;6152260;23;20021;-84
2023/09/29 06:45:45;;;;;;;0.50;0.50;;;;;;;15.47;74.22;100053.97;6152536;23;20064;-83
2023/09/29 06:48:27;;;;;;;0.50;0.50;;;;;;;15.55;73.46;100029.03;6153673;23;20025;-84
2023/09/29 06:50:59;;;;;;;0.50;0.50;;;;;;;15.80;73.08;100042.19;6153214;23;20453;-83
2023/09/29 06:53:29;;;;;;;0.50;0.50;;;;;;;15.92;72.26;100039.31;6153022;23;20536;-83
2023/09/29 06:56:00;;;;;;;0.50;0.50;;;;;;;16.11;72.08;100034.34;6153204;23;20021;-83
2023/09/29 06:58:28;;;;;;;0.50;0.50;;;;;;;16.36;71.22;100041.97;6128253;23;20100;-85
2023/09/29 07:00:56;;;;;;;0.50;0.50;;;;;;;16.60;70.93;100041.63;6153280;23;20052;-83
2023/09/29 07:03:32;;;;;;;0.57;0.57;;;;;;;16.84;70.29;100034.78;6128707;23;20021;-83
2023/09/29 07:06:01;;;;;;;0.50;0.50;;;;;;;16.96;69.63;100031.84;6126297;23;20029;-84
2023/09/29 07:08:29;;;;;;;0.50;0.50;;;;;;;17.16;68.69;100035.81;6152905;23;20393;-85
2023/09/29 07:10:56;;;;;;;0.50;0.50;;;;;;;17.22;67.94;100030.16;6126534;23;20132;-81
2023/09/29 07:13:24;;;;;;;0.50;0.50;;;;;;;17.43;67.68;100035.72;6126610;23;20032;-83
2023/09/29 07:15:52;;;;;;;0.50;0.50;;;;;;;17.61;66.84;100034.44;6152758;23;20057;-83
2023/09/29 07:18:21;;;;;;;0.43;0.43;;;;;;;17.73;66.36;100033.13;6126423;23;20361;-83
2023/09/29 07:20:53;;;;;;;0.40;0.40;;;;;;;17.86;65.70;100036.50;6152461;23;20022;-84
2023/09/29 07:23:22;;;;;;;0.50;0.50;;;;;;;17.91;65.04;100025.59;6102434;23;20097;-82
2023/09/29 07:25:53;;;;;;;0.47;0.47;;;;;;;18.00;64.01;100028.59;6152786;23;20445;-83
2023/09/29 07:28:23;;;;;;;0.50;0.50;;;;;;;17.93;64.30;100016.03;6103245;23;20048;-83
2023/09/29 07:30:50;;;;;;;0.50;0.50;;;;;;;18.10;63.86;100023.97;6127017;23;20444;-84
2023/09/29 07:33:19;;;;;;;0.50;0.50;;;;;;;18.12;64.12;100021.00;6152258;23;20029;-83
2023/09/29 07:35:46;;;;;;;0.50;0.50;;;;;;;18.43;63.06;100010.94;6152381;23;20421;-84
2023/09/29 07:38:14;;;;;;;0.50;0.50;;;;;;;18.73;62.16;100032.00;6127049;23;20022;-84
2023/09/29 07:40:41;;;;;;;0.50;0.50;;;;;;;19.00;61.93;100037.22;6152411;23;20160;-84
2023/09/29 07:43:08;;;;;;;0.50;0.50;;;;;;;19.21;61.10;100026.22;6127155;23;20033;-83
2023/09/29 07:45:35;;;;;;;0.50;0.50;;;;;;;19.36;60.51;100034.41;6128373;23;20025;-84
2023/09/29 07:48:03;;;;;;;0.50;0.50;;;;;;;19.47;60.55;100030.56;6128609;23;20027;-84
2023/09/29 07:50:30;;;;;;;0.50;0.50;;;;;;;19.56;60.30;100039.00;6128728;23;20201;-84
2023/09/29 07:53:00;;;;;;;0.50;0.50;;;;;;;19.72;59.85;100036.25;6128643;23;20021;-83
2023/09/29 07:55:27;;;;;;;0.50;0.50;;;;;;;19.84;59.07;100029.34;6128678;23;20025;-83
2023/09/29 07:57:54;;;;;;;0.50;0.50;;;;;;;20.17;57.98;100017.94;6128605;23;20108;-83
2023/09/29 08:00:22;;;;;;;0.50;0.50;;;;;;;20.60;56.75;100038.22;6154223;23;20037;-84
2023/09/29 08:02:54;;;;;;;0.50;0.50;;;;;;;20.97;55.50;100020.38;6154552;23;20028;-84
2023/09/29 08:05:22;;;;;;;0.50;0.50;;;;;;;21.30;54.62;100020.59;6129001;23;20030;-84
2023/09/29 08:07:49;;;;;;;0.50;0.50;;;;;;;21.47;53.77;100021.00;6159127;23;20492;-84
2023/09/29 08:10:16;;;;;;;0.50;0.50;;;;;;;21.46;53.69;100007.53;6169740;23;20025;-86
2023/09/29 08:12:43;;;;;;;0.50;0.50;;;;;;;21.70;53.17;100033.06;6145154;23;20045;-84
2023/09/29 08:15:13;;;;;;;0.40;0.40;;;;;;;21.97;52.76;100028.88;6163556;23;20021;-83
2023/09/29 08:17:41;;;;;;;0.47;0.47;;;;;;;22.09;51.91;100037.50;6133238;23;20029;-83
2023/09/29 08:20:09;;;;;;;0.50;0.50;;;;;;;21.90;52.07;100029.22;6156544;23;20026;-84
2023/09/29 08:22:37;;;;;;;0.50;0.50;;;;;;;22.16;52.06;100017.91;6156494;23;20029;-83
2023/09/29 08:25:09;;;;;;;0.50;0.50;;;;;;;22.69;50.56;100020.41;6156265;23;20049;-84
2023/09/29 08:27:38;;;;;;;0.40;0.40;;;;;;;23.05;49.93;100025.31;6135473;23;20028;-83
2023/09/29 08:30:06;;;;;;;0.40;0.40;;;;;;;23.16;49.10;100024.00;6163453;23;20045;-84
2023/09/29 08:32:37;;;;;;;0.40;0.40;;;;;;;22.94;49.25;100008.16;6133114;23;20053;-84
2023/09/29 08:35:05;;;;;;;0.50;0.50;;;;;;;23.03;49.55;100016.56;6153433;23;20366;-85
2023/09/29 08:37:33;;;;;;;0.50;0.50;;;;;;;23.39;48.55;100010.38;6154664;23;20029;-84
2023/09/29 08:40:00;;;;;;;0.50;0.50;;;;;;;23.52;48.31;100006.78;6128730;23;20138;-84
2023/09/29 08:42:37;;;;;;;0.50;0.50;;;;;;;23.91;47.88;100011.78;6155567;23;20029;-83
2023/09/29 08:45:10;;;;;;;0.50;0.50;;;;;;;23.78;47.41;100010.69;6129425;23;20026;-83
2023/09/29 08:47:38;;;;;;;0.40;0.40;;;;;;;23.86;47.70;100016.59;6156733;23;20052;-83
2023/09/29 08:50:06;;;;;;;0.50;0.50;;;;;;;23.99;46.84;100005.53;6130151;23;20031;-83
2023/09/29 08:52:35;;;;;;;0.50;0.50;;;;;;;24.39;46.76;99997.47;6154813;23;20032;-84
2023/09/29 08:55:03;;;;;;;0.40;0.40;;;;;;;24.81;45.46;99983.47;6158118;23;20048;-84
2023/09/29 08:57:31;;;;;;;0.40;0.40;;;;;;;25.02;44.82;100008.63;6108983;23;20030;-85
2023/09/29 09:00:00;;;;;;;0.40;0.40;;;;;;;25.17;44.20;99993.59;6156883;23;20072;-84
2023/09/29 09:02:31;;;;;;;0.40;0.40;;;;;;;25.40;42.85;99997.13;6155186;23;20051;-83
2023/09/29 09:04:58;;;;;;;0.40;0.40;;;;;;;25.28;43.37;99989.44;6129906;23;20406;-84
2023/09/29 09:07:26;;;;;;;0.40;0.40;;;;;;;25.48;43.14;99990.81;6156537;23;20081;-85
2023/09/29 09:09:54;;;;;;;0.40;0.40;;;;;;;25.48;42.01;99972.28;6107457;23;20041;-84
2023/09/29 09:12:35;;;;;;;0.40;0.40;;;;;;;25.68;41.75;99981.94;6129494;23;20100;-85
2023/09/29 09:15:04;;;;;;;0.40;0.40;;;;;;;25.48;42.02;99975.03;6154747;23;20032;-87
2023/09/29 09:17:35;;;;;;;0.40;0.40;;;;;;;26.20;40.76;99983.16;6155711;23;20337;-87
2023/09/29 09:20:02;;;;;;;0.40;0.40;;;;;;;26.41;39.88;99991.59;6154767;23;20422;-84
2023/09/29 09:22:36;;;;;;;0.40;0.40;;;;;;;26.04;40.26;99966.22;6154638;23;20045;-85
2023/09/29 09:25:14;;;;;;;0.40;0.40;;;;;;;26.25;39.82;99967.19;6154592;23;20096;-85
2023/09/29 09:27:43;;;;;;;0.38;0.38;;;;;;;26.06;39.60;99975.84;6154330;23;20418;-85
2023/09/29 09:30:24;;;;;;;0.40;0.40;;;;;;;25.77;39.99;99973.63;6154088;23;20361;-84
2023/09/29 09:32:52;;;;;;;0.40;0.40;;;;;;;25.77;39.66;99965.34;6154342;23;20072;-85
2023/09/29 09:35:27;;;;;;;0.40;0.40;;;;;;;25.81;39.63;99963.56;6154128;23;20291;-85
2023/09/29 09:38:01;;;;;;;0.40;0.40;;;;;;;25.55;38.79;99977.34;6154898;23;20049;-84
2023/09/29 09:40:31;;;;;;;0.40;0.40;;;;;;;25.28;39.66;99967.34;6155455;23;20018;-85
2023/09/29 09:43:02;;;;;;;0.40;0.40;;;;;;;25.53;39.19;99963.03;6154541;23;20041;-85
2023/09/29 09:45:37;;;;;;;0.40;0.40;;;;;;;26.08;38.19;99956.13;6131507;23;20033;-85
2023/09/29 09:48:09;;;;;;;0.40;0.40;;;;;;;26.40;37.64;99960.34;6155114;23;20068;-86
2023/09/29 09:50:40;;;;;;;;;;;;;;;26.58;36.80;99964.75;6155128;23;20068;-86
2023/09/29 09:53:09;;;;;;;0.40;0.40;;;;;;;26.50;36.61;99967.50;6127704;23;19920;-85
2023/09/29 09:55:41;;;;;;;0.40;0.40;;;;;;;26.03;37.52;99959.88;6153018;23;20049;-85
2023/09/29 09:58:16;;;;;;;0.40;0.40;;;;;;;26.42;36.92;99969.16;6153901;23;20029;-85
2023/09/29 10:00:47;;;;;;;0.40;0.40;;;;;;;26.92;36.39;99965.81;6153089;23;20461;-85
2023/09/29 10:03:16;;;;;;;0.40;0.40;;;;;;;27.37;35.61;99956.19;6128838;23;20476;-85
2023/09/29 10:05:51;;;;;;;0.43;0.43;;;;;;;27.39;35.38;99951.94;6155504;23;20277;-86
2023/09/29 10:08:30;;;;;;;0.40;0.40;;;;;;;27.71;34.73;99944.09;6129619;23;20021;-84
2023/09/29 10:11:13;;;;;;;0.43;0.43;;;;;;;27.47;34.80;99958.59;6130775;23;20092;-86
2023/09/29 10:13:42;;;;;;;0.50;0.50;;;;;;;27.47;34.48;99946.69;6127778;23;20377;-84
2023/09/29 10:16:23;;;;;;;0.40;0.40;;;;;;;27.94;33.89;99941.84;6128302;23;20053;-85
2023/09/29 10:18:59;;;;;;;0.50;0.50;;;;;;;27.86;33.76;99937.19;6156887;23;20038;-83
2023/09/29 10:21:33;;;;;;;0.50;0.50;;;;;;;28.13;32.87;99940.53;6156382;23;20072;-84
2023/09/29 10:24:05;;;;;;;0.50;0.50;;;;;;;28.45;32.72;99939.78;6153731;23;20491;-85
2023/09/29 10:26:46;;;;;;;0.40;0.40;;;;;;;28.97;30.93;99943.97;6155479;23;20040;-85
2023/09/29 10:29:20;;;;;;;0.40;0.40;;;;;;;29.64;29.97;99922.31;6154222;23;20045;-85
2023/09/29 10:31:49;;;;;;;0.40;0.40;;;;;;;29.54;29.27;99937.50;6153891;23;20021;-85
2023/09/29 10:34:24;;;;;;;0.40;0.40;;;;;;;29.67;29.53;99937.50;6153563;23;20028;-84
2023/09/29 10:36:55;;;;;;;0.40;0.40;;;;;;;29.43;29.90;99928.03;6153312;23;20029;-85
2023/09/29 10:39:26;;;;;;;0.40;0.40;;;;;;;28.73;30.41;99926.09;6153833;23;20045;-86
2023/09/29 10:42:12;;;;;;;0.40;0.40;;;;;;;28.96;30.03;99914.53;6153572;23;20052;-85
2023/09/29 10:44:52;;;;;;;0.40;0.40;;;;;;;28.90;30.41;99925.06;6153834;23;20065;-85
2023/09/29 10:47:33;;;;;;;0.40;0.40;;;;;;;29.43;29.36;99930.00;6153809;23;20045;-85
2023/09/29 10:50:05;;;;;;;0.40;0.40;;;;;;;29.65;28.42;99917.53;6128821;23;20029;-84
2023/09/29 10:52:33;;;;;;;0.40;0.40;;;;;;;29.23;28.85;99913.09;6153667;23;20045;-85
2023/09/29 10:55:04;;;;;;;0.40;0.40;;;;;;;29.95;27.92;99913.31;6127565;23;20028;-85
2023/09/29 10:57:33;;;;;;;0.40;0.40;;;;;;;30.51;27.70;99906.97;6127672;23;20457;-85
2023/09/29 11:00:01;;;;;;;0.40;0.40;;;;;;;30.50;27.82;99904.53;6127886;23;20049;-85
2023/09/29 11:02:33;;;;;;;0.40;0.40;;;;;;;30.58;27.67;99904.34;6155305;23;20068;-85
2023/09/29 11:05:04;;;;;;;0.40;0.40;;;;;;;30.71;27.72;99901.50;6128051;23;20025;-85
2023/09/29 11:07:52;;;;;;;0.40;0.40;;;;;;;30.52;28.20;99908.59;6153332;23;20032;-85
2023/09/29 11:10:20;;;;;;;0.30;0.30;;;;;;;30.60;28.26;99904.00;6127419;23;20097;-85
2023/09/29 11:12:47;;;;;;;0.30;0.30;;;;;;;30.03;28.53;99890.13;6155156;23;20026;-85
2023/09/29 11:15:16;;;;;;;0.40;0.40;;;;;;;29.36;29.20;99894.44;6127905;23;20028;-85
2023/09/29 11:17:48;;;;;;;0.40;0.40;;;;;;;29.44;29.32;99879.59;6153070;23;20026;-85
2023/09/29 11:20:37;;;;;;;0.30;0.30;;;;;;;29.45;29.16;99877.59;6127699;23;20461;-84
2023/09/29 11:23:11;;;;;;;0.40;0.40;;;;;;;30.01;28.42;99874.94;6153361;23;20033;-86
2023/09/29 11:25:49;;;;;;;0.40;0.40;;;;;;;29.56;28.99;99893.47;6154345;23;20043;-85
2023/09/29 11:28:17;;;;;;;0.40;0.40;;;;;;;29.72;29.23;99884.41;6127946;23;20025;-84
2023/09/29 11:30:44;;;;;;;0.40;0.40;;;;;;;30.43;28.25;99868.94;6127329;23;20073;-85
2023/09/29 11:33:12;;;;;;;0.40;0.40;;;;;;;30.74;27.51;99876.53;6153410;23;20025;-85
2023/09/29 11:35:47;;;;;;;0.40;0.40;;;;;;;29.91;28.69;99878.22;6154270;23;20032;-86
2023/09/29 11:38:20;;;;;;;0.40;0.40;;;;;;;30.34;28.19;99877.47;6128329;23;20025;-83